Aérodrome :
LOGIN :

S'inscrire | Disclaimer

   EN    FR    IT 

 










Légende :    VFR   VFR Marginal   IFR   IFR Intensif   IFR Très Intensif
Visi : 
Plafond : 
>= 8 km
>= 3000ft
5 à 8 km
1000 à 3000 ft
1500m à 5 km
500 à 1000 ft
800 à 1500m
200 à 500 ft
< 800m
< 200 ft
Symboles :   Orages  Brouillard  Fortes neiges  Fortes précipitations  Vent > 20 kt
SIGMETs :   Divers  Orages  Givrage  Turbulence  Onde Orograph.  Cendres Volcan.






- Altitude de l'aérodrome : 46 ft
- Code IATA : SNN


EINN - Shannon

DERNIER METAR :
  • 150800Z 16008KT 9999 FEW010 SCT200 09/07 Q1001 NOSIG

METARs EXPIRÉS :
  • 150730Z 17008KT 9999 FEW010 08/07 Q1001 NOSIG
  • 150700Z 16008KT 9999 FEW010 SCT200 08/07 Q1001 NOSIG
  • 150630Z 17004KT 9999 FEW010 08/07 Q1001 NOSIG
  • 150600Z 19005KT 9999 FEW010 SCT160 09/08 Q1001 NOSIG
  • 150530Z 22004KT 9999 FEW010 SCT033 09/08 Q1001 NOSIG

TAF TAF EINN
Valide du 15 à 06h jusqu'au 16 à 06h UTC


150500Z 1506/1606 23007KT 9999 FEW012 BKN032
BECMG 1506/1508 17008KT
BECMG 1510/1512 16013KT
BECMG 1513/1515 16017G28KT
BECMG 1516/1518 7000 -RA BKN012
TEMPO 1518/1522 4000 RA BKN006
BECMG 1519/1521 22016G27KT
BECMG 1521/1523 28012KT 9999 NSW FEW012 BKN023
BECMG 1600/1602 24007KT



MET'MAP, la Météo Aéronautique d'un coup d'oeil ! - Copyright ORBIFLY Décembre 2007 - Disclaimer

ORBIFLY MET'MAP TEAM :

Programmation & Développement : Alexandra Zaïnal
Conception & Développement : Baudouin d'Aumeries
Co-Programmation & Développement : Marc-Olivier Méhu
Soutien technique & logistique : Manuel Goepfert

Contact : metmap@orbifly.com




SOURCES & CREDITS :

   NOAA